This is the latest recevied weather packets stored in our database for station/object JH1LWU-13. If no packets are shown the sender has not sent any weather packets the latest 10 day(s).
| Time | Temp. | Humidity | Pressure | Rain* | Wind** | Luminosity | Snow |
|---|---|---|---|---|---|---|---|
| 1788157166 | 26.67° C | 61% | 1008 hPa | - | - | - | - |
| 1788155365 | 26.67° C | 60% | 1009 hPa | - | - | - | - |
| 1788153564 | 27.22° C | 61% | 1010 hPa | - | - | - | - |
| 1788151763 | 27.22° C | 59% | 1011 hPa | - | - | - | - |
| 1788149962 | 27.78° C | 58% | 1010 hPa | - | - | - | - |
| 1788148161 | 28.33° C | 57% | 1010 hPa | - | - | - | - |
| 1788146360 | 27.22° C | 58% | 1011 hPa | - | - | - | - |
| 1788144559 | 26.11° C | 62% | 1010 hPa | - | - | - | - |
| 1788142758 | 25.56° C | 62% | 1010 hPa | - | - | - | - |
| 1788140957 | 25° C | 65% | 1010 hPa | - | - | - | - |
| 1788139156 | 25° C | 66% | 1009 hPa | - | - | - | - |
| 1788137355 | 24.44° C | 69% | 1011 hPa | - | - | - | - |
| 1788135554 | 23.89° C | 72% | 1010 hPa | - | - | - | - |
| 1788133753 | 22.78° C | 77% | 1010 hPa | - | - | - | - |
| 1788131952 | 22.22° C | 80% | 1011 hPa | - | - | - | - |
| 1788130151 | 21.67° C | 81% | 1010 hPa | - | - | - | - |
| 1788128350 | 22.22° C | 79% | 1011 hPa | - | - | - | - |
| 1788126549 | 22.78° C | 77% | 1008 hPa | - | - | - | - |
| 1788124748 | 22.78° C | 78% | 1008 hPa | - | - | - | - |
| 1788122947 | 22.22° C | 78% | 1007 hPa | - | - | - | - |
| 1788121146 | 22.22° C | 78% | 1009 hPa | - | - | - | - |
| 1788119345 | 22.22° C | 78% | 1008 hPa | - | - | - | - |
| 1788117544 | 22.78° C | 77% | 1007 hPa | - | - | - | - |
| 1788115743 | 22.22° C | 77% | 1007 hPa | - | - | - | - |
| 1788113942 | 22.78° C | 76% | 1007 hPa | - | - | - | - |
* Rain since midnight (hover to see other rain measurements)
** Current wind speed in m/s (hover to see current wind gust speed)